createdAt,value
2023-01-29T00:00:10.364Z,59.80
2023-01-29T00:01:12.215Z,59.79
2023-01-29T00:02:13.988Z,60.11
2023-01-29T00:03:16.163Z,60.34
2023-01-29T00:04:18.789Z,59.62
2023-01-29T00:05:27.869Z,60.15
2023-01-29T00:06:30.114Z,59.70
2023-01-29T00:07:32.651Z,59.90
2023-01-29T00:08:38.053Z,59.64
2023-01-29T00:09:40.212Z,59.99
2023-01-29T00:10:41.931Z,59.92
2023-01-29T00:11:43.765Z,60.42
2023-01-29T00:12:45.489Z,60.30
2023-01-29T00:13:47.501Z,59.00
2023-01-29T00:14:49.837Z,59.68
2023-01-29T00:15:56.697Z,59.44
2023-01-29T00:16:58.454Z,59.44
2023-01-29T00:18:00.193Z,59.92
2023-01-29T00:19:02.849Z,59.92
2023-01-29T00:20:05.079Z,59.94
2023-01-29T00:21:18.677Z,59.81
2023-01-29T00:22:20.364Z,59.20
2023-01-29T00:23:22.234Z,59.50
2023-01-29T00:24:24.002Z,59.97
2023-01-29T00:25:25.758Z,59.56
2023-01-29T00:26:27.915Z,59.96
2023-01-29T00:27:29.945Z,59.39
2023-01-29T00:28:31.745Z,59.23
2023-01-29T00:29:33.502Z,59.98
2023-01-29T00:30:36.976Z,59.11
2023-01-29T00:31:38.794Z,59.70
2023-01-29T00:32:41.258Z,59.85
2023-01-29T00:33:42.982Z,60.16
2023-01-29T00:34:44.695Z,60.10
2023-01-29T00:35:46.387Z,60.01
2023-01-29T00:36:48.075Z,60.44
2023-01-29T00:37:49.913Z,59.90
2023-01-29T00:39:03.679Z,60.42
2023-01-29T00:40:06.067Z,60.45
2023-01-29T00:41:29.294Z,60.12
2023-01-29T00:42:49.821Z,60.49
2023-01-29T00:44:10.352Z,59.95
2023-01-29T00:45:12.729Z,59.88
2023-01-29T00:46:14.447Z,60.28
2023-01-29T00:47:31.165Z,60.35
2023-01-29T00:48:34.341Z,60.81
2023-01-29T00:49:36.047Z,60.23
2023-01-29T00:50:37.779Z,60.35
2023-01-29T00:51:39.870Z,59.97
2023-01-29T00:52:41.841Z,59.99
2023-01-29T00:53:43.548Z,60.17
2023-01-29T00:54:45.236Z,59.99
2023-01-29T00:55:46.966Z,59.89
2023-01-29T00:56:48.683Z,60.62
2023-01-29T00:57:50.378Z,60.72
2023-01-29T00:58:52.207Z,60.69
2023-01-29T00:59:54.292Z,60.38
2023-01-29T01:00:56.273Z,60.78
2023-01-29T01:02:16.627Z,60.22
2023-01-29T01:03:18.347Z,60.41
2023-01-29T01:04:20.033Z,60.35
2023-01-29T01:05:21.850Z,60.86
2023-01-29T01:06:23.603Z,60.95
2023-01-29T01:07:25.396Z,60.41
2023-01-29T01:08:45.551Z,60.28
2023-01-29T01:10:05.905Z,61.00
2023-01-29T01:11:07.788Z,61.49
2023-01-29T01:12:09.482Z,61.70
2023-01-29T01:13:11.166Z,61.08
2023-01-29T01:14:12.911Z,61.75
2023-01-29T01:15:14.890Z,61.61
2023-01-29T01:16:19.150Z,61.91
2023-01-29T01:17:21.041Z,61.39
2023-01-29T01:18:23.039Z,61.56
2023-01-29T01:19:24.744Z,62.21
2023-01-29T01:20:28.603Z,62.02
2023-01-29T01:21:30.378Z,62.31
2023-01-29T01:22:32.131Z,62.32
2023-01-29T01:23:33.892Z,62.34
2023-01-29T01:24:36.194Z,62.48
2023-01-29T01:25:38.235Z,62.47
2023-01-29T01:26:40.121Z,62.80
2023-01-29T01:27:41.976Z,63.28
2023-01-29T01:28:44.542Z,63.80
2023-01-29T01:29:46.917Z,62.85
2023-01-29T01:30:48.641Z,63.06
2023-01-29T01:31:50.636Z,64.02
2023-01-29T01:32:52.724Z,63.26
2023-01-29T01:33:55.754Z,63.98
2023-01-29T01:34:57.574Z,63.37
2023-01-29T01:36:02.141Z,63.42
2023-01-29T01:37:03.914Z,63.54
2023-01-29T01:38:05.663Z,64.26
2023-01-29T01:39:07.428Z,63.60
2023-01-29T01:40:18.414Z,64.24
2023-01-29T01:41:22.038Z,63.98
2023-01-29T01:42:30.173Z,64.19
2023-01-29T01:43:48.979Z,64.48
2023-01-29T01:44:53.633Z,64.18
2023-01-29T01:45:55.427Z,64.06
2023-01-29T01:46:57.225Z,64.69
2023-01-29T01:48:07.413Z,65.13
2023-01-29T01:49:16.355Z,65.12
2023-01-29T01:50:29.932Z,65.00
2023-01-29T01:51:34.295Z,64.85
2023-01-29T01:52:39.972Z,64.80
2023-01-29T01:53:51.769Z,65.07
2023-01-29T01:54:53.513Z,65.55
2023-01-29T01:56:02.464Z,65.71
2023-01-29T01:57:15.977Z,65.48
2023-01-29T01:58:28.356Z,65.17
2023-01-29T01:59:31.148Z,65.51
2023-01-29T02:00:32.897Z,65.86
2023-01-29T02:01:34.816Z,65.36
2023-01-29T02:02:58.321Z,65.08
2023-01-29T02:04:45.140Z,65.41
2023-01-29T02:06:06.226Z,65.72
2023-01-29T02:07:30.397Z,65.51
2023-01-29T02:09:18.831Z,65.16
2023-01-29T02:10:22.443Z,65.90
2023-01-29T02:11:24.821Z,65.34
2023-01-29T02:12:28.890Z,66.50
2023-01-29T02:13:30.650Z,65.62
2023-01-29T02:14:34.597Z,66.19
2023-01-29T02:15:36.531Z,65.93
2023-01-29T02:16:38.393Z,66.35
2023-01-29T02:17:40.394Z,65.78
2023-01-29T02:18:42.159Z,65.77
2023-01-29T02:20:18.256Z,66.14
2023-01-29T02:21:54.534Z,66.61
2023-01-29T02:23:54.241Z,67.12
2023-01-29T02:25:10.580Z,66.71
2023-01-29T02:26:21.124Z,67.19
2023-01-29T02:28:00.263Z,66.81
2023-01-29T02:29:27.082Z,67.68
2023-01-29T02:30:51.890Z,67.37
2023-01-29T02:32:02.035Z,68.11
2023-01-29T02:33:35.976Z,67.37
2023-01-29T02:35:20.992Z,67.74
2023-01-29T02:36:59.384Z,67.68
2023-01-29T02:38:29.062Z,67.37
2023-01-29T02:39:34.237Z,68.01
2023-01-29T02:40:35.897Z,67.48
2023-01-29T02:42:06.781Z,68.10
2023-01-29T02:43:33.306Z,67.56
2023-01-29T02:44:43.866Z,67.79
2023-01-29T02:46:00.708Z,67.50
2023-01-29T02:47:16.763Z,67.24
2023-01-29T02:48:22.455Z,67.77
2023-01-29T02:49:53.187Z,67.79
2023-01-29T02:51:14.075Z,67.58
2023-01-29T02:52:21.378Z,68.20
2023-01-29T02:53:32.696Z,67.64
2023-01-29T02:54:45.233Z,68.43
2023-01-29T02:55:56.120Z,68.20
2023-01-29T02:57:09.273Z,68.07
2023-01-29T02:58:20.846Z,68.44
2023-01-29T02:59:28.570Z,68.28
2023-01-29T03:00:38.402Z,68.69
2023-01-29T03:01:48.667Z,68.41
2023-01-29T03:03:06.444Z,67.71
2023-01-29T03:04:12.637Z,67.89
2023-01-29T03:05:27.599Z,68.67
2023-01-29T03:06:37.632Z,68.79
2023-01-29T03:07:46.475Z,68.43
2023-01-29T03:08:58.564Z,68.90
2023-01-29T03:10:03.425Z,69.21
2023-01-29T03:11:07.291Z,68.87
2023-01-29T03:12:40.455Z,69.75
2023-01-29T03:13:48.164Z,70.00
2023-01-29T03:15:10.357Z,69.70
2023-01-29T03:16:30.214Z,69.98
2023-01-29T03:17:39.186Z,70.07
2023-01-29T03:18:47.053Z,69.74
2023-01-29T03:19:49.321Z,70.75
2023-01-29T03:21:00.577Z,71.12
2023-01-29T03:22:06.289Z,70.61
2023-01-29T03:23:14.538Z,71.10
2023-01-29T03:24:41.788Z,70.52
2023-01-29T03:26:03.251Z,70.86
2023-01-29T03:27:28.901Z,71.03
2023-01-29T03:28:49.293Z,70.76
2023-01-29T03:30:12.901Z,71.17
2023-01-29T03:31:35.994Z,71.80
2023-01-29T03:32:40.385Z,72.30
2023-01-29T03:33:49.915Z,72.11
2023-01-29T03:34:58.304Z,71.98
2023-01-29T03:36:07.120Z,71.99
2023-01-29T03:37:15.314Z,72.34
2023-01-29T03:38:17.329Z,72.13
2023-01-29T03:39:19.764Z,72.11
2023-01-29T03:40:21.466Z,72.54
2023-01-29T03:41:33.018Z,72.79
2023-01-29T03:43:00.309Z,72.66
2023-01-29T03:44:50.135Z,72.85
2023-01-29T03:46:04.439Z,73.31
2023-01-29T03:47:21.141Z,73.55
2023-01-29T03:48:40.795Z,72.98
2023-01-29T03:50:03.654Z,73.71
2023-01-29T03:51:12.144Z,72.51
2023-01-29T03:52:26.039Z,72.30
2023-01-29T03:53:39.983Z,72.81
2023-01-29T03:54:47.695Z,73.32
2023-01-29T03:55:55.523Z,73.13
2023-01-29T03:57:05.645Z,73.50
2023-01-29T03:58:19.475Z,74.39
2023-01-29T03:59:33.595Z,74.60
2023-01-29T04:00:41.767Z,74.66
2023-01-29T04:01:55.091Z,74.40
2023-01-29T04:03:05.620Z,74.88
2023-01-29T04:04:14.456Z,75.59
2023-01-29T04:05:32.228Z,75.46
2023-01-29T04:06:37.939Z,74.91
2023-01-29T04:07:42.023Z,75.25
2023-01-29T04:08:52.957Z,74.87
2023-01-29T04:10:06.808Z,75.69
2023-01-29T04:11:13.765Z,76.10
2023-01-29T04:12:23.108Z,75.84
2023-01-29T04:13:25.753Z,75.54
2023-01-29T04:14:27.671Z,75.53
2023-01-29T04:15:34.344Z,75.83
2023-01-29T04:16:41.322Z,76.07
2023-01-29T04:17:51.783Z,75.96
2023-01-29T04:18:54.816Z,75.36
2023-01-29T04:19:56.604Z,76.29
2023-01-29T04:20:59.617Z,75.69
2023-01-29T04:22:14.038Z,75.62
2023-01-29T04:23:24.341Z,75.90
2023-01-29T04:24:26.233Z,76.67
2023-01-29T04:25:34.743Z,76.42
2023-01-29T04:26:51.383Z,75.91
2023-01-29T04:28:07.054Z,75.81
2023-01-29T04:29:34.280Z,76.23
2023-01-29T04:30:48.096Z,75.28
2023-01-29T04:32:13.547Z,75.25
2023-01-29T04:33:34.051Z,74.97
2023-01-29T04:34:59.515Z,75.04
2023-01-29T04:36:43.306Z,75.25
2023-01-29T04:37:58.166Z,75.23
2023-01-29T04:39:12.043Z,74.75
2023-01-29T04:40:37.761Z,74.23
2023-01-29T04:41:39.393Z,74.81
2023-01-29T04:42:55.822Z,74.25
2023-01-29T04:44:18.947Z,75.11
2023-01-29T04:45:34.071Z,75.19
2023-01-29T04:46:51.616Z,75.01
2023-01-29T04:47:56.019Z,74.91
2023-01-29T04:49:20.048Z,74.75
2023-01-29T04:50:28.909Z,75.18
2023-01-29T04:51:57.249Z,75.42
2023-01-29T04:53:12.131Z,74.44
2023-01-29T04:54:36.808Z,74.92
2023-01-29T04:55:50.192Z,74.40
2023-01-29T04:57:04.617Z,74.38
2023-01-29T04:58:17.577Z,74.27
2023-01-29T04:59:27.462Z,74.31
2023-01-29T05:00:34.620Z,74.18
2023-01-29T05:01:38.982Z,75.24
2023-01-29T05:02:44.059Z,74.91
2023-01-29T05:03:50.578Z,74.74
2023-01-29T05:04:54.627Z,74.04
2023-01-29T05:05:59.563Z,73.76
2023-01-29T05:07:12.683Z,73.81
2023-01-29T05:08:19.602Z,74.33
2023-01-29T05:09:22.440Z,74.52
2023-01-29T05:10:25.540Z,74.75
2023-01-29T05:11:27.429Z,74.93
2023-01-29T05:12:31.334Z,74.05
2023-01-29T05:13:39.477Z,74.21
2023-01-29T05:14:44.703Z,74.26
2023-01-29T05:15:53.051Z,74.91
2023-01-29T05:16:58.803Z,74.61
2023-01-29T05:18:03.222Z,74.51
2023-01-29T05:19:04.962Z,75.26
2023-01-29T05:20:07.315Z,74.91
2023-01-29T05:21:09.658Z,74.93
2023-01-29T05:22:16.152Z,74.71
2023-01-29T05:23:23.463Z,74.14
2023-01-29T05:24:26.680Z,73.82
2023-01-29T05:25:31.816Z,73.57
2023-01-29T05:26:52.507Z,73.96
2023-01-29T05:28:13.628Z,73.33
2023-01-29T05:29:15.361Z,73.26
2023-01-29T05:30:17.516Z,73.44
2023-01-29T05:31:19.529Z,73.55
2023-01-29T05:32:21.310Z,73.32
2023-01-29T05:33:28.901Z,72.95
2023-01-29T05:34:30.645Z,73.54
2023-01-29T05:35:32.476Z,73.18
2023-01-29T05:36:34.230Z,72.70
2023-01-29T05:37:36.047Z,73.13
2023-01-29T05:38:37.744Z,72.70
2023-01-29T05:39:39.578Z,71.95
2023-01-29T05:40:41.448Z,72.36
2023-01-29T05:41:43.922Z,72.24
2023-01-29T05:42:45.612Z,72.79
2023-01-29T05:43:47.531Z,72.54
2023-01-29T05:44:49.318Z,72.08
2023-01-29T05:45:59.056Z,71.64
2023-01-29T05:47:02.847Z,72.39
2023-01-29T05:48:04.710Z,72.30
2023-01-29T05:49:06.884Z,72.10
2023-01-29T05:50:09.613Z,71.39
2023-01-29T05:51:11.378Z,71.88
2023-01-29T05:52:13.086Z,72.24
2023-01-29T05:53:15.124Z,71.55
2023-01-29T05:54:16.850Z,71.88
2023-01-29T05:55:18.621Z,72.43
2023-01-29T05:56:20.317Z,72.19
2023-01-29T05:57:22.356Z,71.26
2023-01-29T05:58:24.133Z,71.19
2023-01-29T05:59:25.969Z,71.26
2023-01-29T06:00:27.760Z,71.29
2023-01-29T06:01:29.904Z,71.80
2023-01-29T06:02:31.949Z,71.68
2023-01-29T06:03:33.648Z,72.02
2023-01-29T06:04:35.446Z,72.39
2023-01-29T06:05:40.350Z,72.47
2023-01-29T06:06:42.046Z,72.04
2023-01-29T06:07:45.395Z,71.66
2023-01-29T06:08:47.839Z,71.85
2023-01-29T06:09:49.559Z,72.41
2023-01-29T06:10:51.309Z,71.58
2023-01-29T06:11:53.033Z,71.60
2023-01-29T06:12:54.878Z,71.12
2023-01-29T06:13:56.589Z,71.46
2023-01-29T06:14:58.294Z,71.70
2023-01-29T06:16:00.237Z,71.71
2023-01-29T06:17:01.983Z,71.71
2023-01-29T06:18:03.714Z,72.43
2023-01-29T06:19:05.474Z,71.40
2023-01-29T06:20:08.396Z,72.53
2023-01-29T06:21:12.864Z,72.32
2023-01-29T06:22:14.638Z,71.85
2023-01-29T06:23:16.411Z,71.94
2023-01-29T06:24:18.147Z,72.04
2023-01-29T06:25:19.885Z,72.21
2023-01-29T06:26:21.733Z,72.22
2023-01-29T06:27:23.445Z,72.43
2023-01-29T06:28:25.135Z,72.99
2023-01-29T06:29:26.863Z,72.63
2023-01-29T06:30:28.633Z,72.71
2023-01-29T06:31:38.917Z,73.25
2023-01-29T06:32:41.199Z,72.97
2023-01-29T06:33:43.116Z,74.21
2023-01-29T06:34:44.918Z,74.09
2023-01-29T06:35:46.598Z,74.04
2023-01-29T06:36:48.343Z,73.88
2023-01-29T06:37:50.042Z,74.08
2023-01-29T06:38:51.745Z,73.89
2023-01-29T06:39:53.494Z,73.85
2023-01-29T06:40:56.000Z,73.88
2023-01-29T06:41:57.737Z,73.60
2023-01-29T06:43:00.982Z,73.00
2023-01-29T06:44:02.752Z,73.83
2023-01-29T06:45:05.177Z,73.58
2023-01-29T06:46:08.859Z,73.96
2023-01-29T06:47:10.676Z,73.66
2023-01-29T06:48:12.379Z,73.19
2023-01-29T06:49:14.071Z,73.46
2023-01-29T06:50:16.101Z,74.12
2023-01-29T06:51:18.613Z,73.70
2023-01-29T06:52:20.359Z,74.11
2023-01-29T06:53:22.347Z,74.44
2023-01-29T06:54:24.093Z,75.14
2023-01-29T06:55:25.779Z,74.83
2023-01-29T06:56:27.548Z,74.86
2023-01-29T06:57:30.273Z,74.91
2023-01-29T06:58:32.287Z,74.93
2023-01-29T06:59:34.583Z,74.77
2023-01-29T07:00:36.917Z,74.65
2023-01-29T07:01:44.457Z,74.20
2023-01-29T07:02:49.751Z,74.59
2023-01-29T07:03:51.993Z,75.03
2023-01-29T07:04:53.703Z,74.68
2023-01-29T07:05:55.395Z,74.82
2023-01-29T07:06:57.129Z,75.34
2023-01-29T07:07:58.823Z,74.22
2023-01-29T07:09:00.657Z,74.50
2023-01-29T07:10:02.393Z,73.85
2023-01-29T07:11:04.626Z,74.23
2023-01-29T07:12:06.858Z,74.51
2023-01-29T07:13:08.547Z,73.74
2023-01-29T07:14:10.302Z,73.83
2023-01-29T07:15:12.905Z,74.57
2023-01-29T07:16:14.677Z,74.11
2023-01-29T07:17:16.499Z,73.53
2023-01-29T07:18:18.229Z,74.47
2023-01-29T07:19:19.938Z,73.75
2023-01-29T07:20:21.654Z,74.10
2023-01-29T07:21:23.885Z,74.81
2023-01-29T07:22:25.602Z,74.43
2023-01-29T07:23:27.387Z,74.57
2023-01-29T07:24:29.247Z,74.85
2023-01-29T07:25:31.139Z,74.74
2023-01-29T07:26:32.880Z,74.61
2023-01-29T07:27:34.591Z,74.77
2023-01-29T07:28:38.253Z,74.88
2023-01-29T07:29:39.964Z,75.45
2023-01-29T07:30:41.690Z,74.97
2023-01-29T07:31:43.560Z,75.03
2023-01-29T07:32:45.480Z,74.59
2023-01-29T07:33:47.350Z,74.73
2023-01-29T07:34:49.079Z,75.47
2023-01-29T07:35:50.864Z,74.87
2023-01-29T07:36:56.945Z,74.76
2023-01-29T07:37:58.764Z,74.69
2023-01-29T07:39:00.486Z,74.52
2023-01-29T07:40:02.347Z,75.09
2023-01-29T07:41:04.340Z,75.73
2023-01-29T07:42:06.111Z,76.14
2023-01-29T07:43:09.837Z,75.24
2023-01-29T07:44:11.644Z,76.08
2023-01-29T07:45:13.390Z,75.64
2023-01-29T07:46:15.356Z,75.14
2023-01-29T07:47:17.402Z,75.93
2023-01-29T07:48:19.620Z,75.17
2023-01-29T07:49:21.318Z,75.86
2023-01-29T07:50:27.664Z,75.77
2023-01-29T07:51:29.631Z,75.15
2023-01-29T07:52:33.099Z,75.36
2023-01-29T07:53:35.916Z,74.92
2023-01-29T07:54:37.655Z,75.08
2023-01-29T07:55:39.404Z,75.77
2023-01-29T07:56:41.093Z,74.92
2023-01-29T07:57:42.987Z,75.26
2023-01-29T07:58:44.770Z,74.17
2023-01-29T07:59:46.479Z,74.72
2023-01-29T08:00:48.394Z,74.66
2023-01-29T08:01:50.155Z,74.03
2023-01-29T08:02:52.266Z,74.23
2023-01-29T08:03:53.966Z,73.78
2023-01-29T08:04:55.742Z,74.43
2023-01-29T08:05:58.279Z,73.29
2023-01-29T08:06:59.961Z,73.32
2023-01-29T08:08:06.918Z,72.98
2023-01-29T08:09:10.377Z,72.21
2023-01-29T08:10:12.314Z,72.60
2023-01-29T08:11:14.080Z,72.79
2023-01-29T08:12:15.846Z,72.93
2023-01-29T08:13:17.563Z,72.17
2023-01-29T08:14:19.340Z,72.45
2023-01-29T08:15:21.154Z,71.88
2023-01-29T08:16:23.643Z,71.70
2023-01-29T08:17:25.448Z,70.83
2023-01-29T08:18:27.862Z,69.27
2023-01-29T08:19:29.613Z,70.95
2023-01-29T08:20:31.409Z,70.02
2023-01-29T08:21:33.135Z,69.59
2023-01-29T08:22:34.850Z,68.78
2023-01-29T08:23:36.568Z,69.74
2023-01-29T08:24:53.288Z,69.10
2023-01-29T08:26:00.007Z,68.78
2023-01-29T08:27:01.704Z,68.79
2023-01-29T08:28:04.913Z,69.46
2023-01-29T08:29:06.615Z,70.30
2023-01-29T08:30:09.964Z,70.67
2023-01-29T08:31:20.837Z,69.01
2023-01-29T08:32:22.600Z,68.82
2023-01-29T08:33:38.048Z,69.95
2023-01-29T08:34:40.620Z,69.25
2023-01-29T08:35:42.373Z,70.01
2023-01-29T08:36:44.330Z,70.51
2023-01-29T08:37:53.188Z,69.02
2023-01-29T08:38:54.902Z,69.44
2023-01-29T08:39:56.622Z,69.72
2023-01-29T08:40:58.332Z,71.13
2023-01-29T08:41:59.997Z,70.56
2023-01-29T08:43:06.859Z,70.92
2023-01-29T08:44:08.991Z,70.67
2023-01-29T08:45:11.239Z,69.97
2023-01-29T08:46:13.200Z,69.53
2023-01-29T08:47:15.158Z,69.05
2023-01-29T08:48:16.956Z,70.19
2023-01-29T08:49:18.737Z,70.55
2023-01-29T08:50:20.514Z,69.62
2023-01-29T08:51:22.707Z,68.52
2023-01-29T08:52:24.426Z,69.32
2023-01-29T08:53:26.384Z,68.33
2023-01-29T08:54:28.063Z,67.99
2023-01-29T08:55:29.803Z,67.32
2023-01-29T08:56:31.529Z,67.76
2023-01-29T08:57:33.257Z,66.93
2023-01-29T08:58:34.959Z,67.76
2023-01-29T08:59:36.710Z,67.93
2023-01-29T09:00:38.770Z,67.55
2023-01-29T09:01:40.529Z,66.74
2023-01-29T09:02:42.371Z,66.82
2023-01-29T09:03:44.765Z,67.16
2023-01-29T09:04:46.532Z,68.09
2023-01-29T09:05:49.299Z,67.63
2023-01-29T09:06:51.080Z,67.74
2023-01-29T09:07:54.250Z,67.76
2023-01-29T09:08:56.146Z,67.71
2023-01-29T09:09:58.155Z,67.14
2023-01-29T09:11:00.421Z,66.45
2023-01-29T09:12:02.110Z,67.16
2023-01-29T09:13:04.519Z,67.30
2023-01-29T09:14:06.493Z,66.86
2023-01-29T09:15:08.775Z,65.82
2023-01-29T09:16:10.963Z,66.58
2023-01-29T09:17:12.662Z,67.12
2023-01-29T09:18:14.366Z,67.35
2023-01-29T09:19:16.109Z,67.14
2023-01-29T09:20:18.666Z,66.65
2023-01-29T09:21:20.460Z,66.30
2023-01-29T09:22:22.218Z,65.72
2023-01-29T09:23:24.274Z,65.55
2023-01-29T09:24:26.031Z,65.42
2023-01-29T09:25:27.728Z,65.55
2023-01-29T09:26:29.502Z,65.35
2023-01-29T09:27:31.231Z,65.57
2023-01-29T09:28:32.931Z,65.28
2023-01-29T09:29:35.945Z,63.94
2023-01-29T09:30:38.332Z,64.55
2023-01-29T09:31:40.291Z,64.79
2023-01-29T09:32:57.271Z,65.39
2023-01-29T09:33:59.027Z,64.70
2023-01-29T09:35:00.806Z,65.29
2023-01-29T09:36:05.791Z,65.61
2023-01-29T09:37:07.591Z,65.47
2023-01-29T09:38:10.853Z,65.42
2023-01-29T09:39:12.611Z,65.64
2023-01-29T09:40:27.248Z,63.95
2023-01-29T09:41:49.547Z,64.88
2023-01-29T09:42:58.155Z,64.05
2023-01-29T09:44:03.725Z,64.26
2023-01-29T09:45:10.946Z,64.05
2023-01-29T09:46:20.306Z,64.64
2023-01-29T09:47:25.186Z,64.21
2023-01-29T09:48:30.405Z,64.12
2023-01-29T09:49:41.787Z,64.96
2023-01-29T09:50:46.791Z,64.51
2023-01-29T09:51:52.543Z,63.64
2023-01-29T09:53:11.139Z,64.61
2023-01-29T09:54:25.964Z,63.65
2023-01-29T09:55:32.756Z,63.27
2023-01-29T09:56:35.478Z,63.01
2023-01-29T09:57:50.303Z,62.90
2023-01-29T09:58:52.050Z,63.49
2023-01-29T09:59:54.768Z,63.86
2023-01-29T10:01:20.980Z,64.34
2023-01-29T10:02:46.386Z,64.07
2023-01-29T10:04:09.090Z,63.48
2023-01-29T10:05:44.919Z,63.51
2023-01-29T10:07:09.815Z,64.24
2023-01-29T10:08:34.512Z,62.68
2023-01-29T10:10:07.672Z,63.21
2023-01-29T10:11:27.367Z,63.55
2023-01-29T10:13:03.153Z,63.88
2023-01-29T10:14:38.291Z,62.90
2023-01-29T10:15:46.117Z,62.71
2023-01-29T10:17:06.223Z,63.43
2023-01-29T10:18:42.065Z,63.94
2023-01-29T10:19:52.915Z,62.97
2023-01-29T10:21:14.259Z,63.86
2023-01-29T10:22:27.825Z,63.08
2023-01-29T10:23:35.030Z,63.57
2023-01-29T10:24:54.714Z,62.41
2023-01-29T10:25:56.933Z,61.75
2023-01-29T10:26:59.959Z,61.54
2023-01-29T10:28:01.957Z,62.02
2023-01-29T10:29:07.398Z,62.95
2023-01-29T10:30:20.085Z,62.84
2023-01-29T10:31:28.675Z,62.88
2023-01-29T10:32:31.983Z,61.96
2023-01-29T10:33:49.540Z,61.63
2023-01-29T10:35:38.043Z,60.74
2023-01-29T10:36:45.522Z,61.79
2023-01-29T10:37:47.855Z,60.78
2023-01-29T10:38:51.161Z,60.93
2023-01-29T10:39:52.891Z,61.68
2023-01-29T10:41:11.570Z,60.07
2023-01-29T10:42:35.354Z,59.82
2023-01-29T10:44:00.867Z,60.04
2023-01-29T10:45:43.043Z,60.66
2023-01-29T10:46:50.432Z,60.94
2023-01-29T10:48:58.114Z,60.57
2023-01-29T10:50:33.448Z,60.39
2023-01-29T10:51:43.734Z,59.45
2023-01-29T10:53:05.148Z,58.98
2023-01-29T10:54:20.261Z,59.82
2023-01-29T10:55:37.448Z,58.96
2023-01-29T10:56:41.764Z,58.86
2023-01-29T10:57:49.058Z,58.40
2023-01-29T10:58:55.728Z,58.17
2023-01-29T11:00:07.258Z,58.77
2023-01-29T11:01:10.797Z,58.20
2023-01-29T11:02:18.033Z,59.03
2023-01-29T11:03:29.455Z,58.72
2023-01-29T11:04:32.389Z,59.05
2023-01-29T11:06:10.427Z,58.31
2023-01-29T11:07:13.893Z,58.76
2023-01-29T11:08:25.686Z,58.15
2023-01-29T11:09:43.080Z,57.99
2023-01-29T11:11:09.811Z,58.33
2023-01-29T11:12:20.903Z,57.88
2023-01-29T11:13:33.655Z,57.83
2023-01-29T11:14:48.198Z,58.38
2023-01-29T11:15:52.879Z,57.65
2023-01-29T11:16:55.736Z,57.97
2023-01-29T11:18:17.239Z,57.18
2023-01-29T11:19:22.304Z,57.47
2023-01-29T11:20:28.788Z,57.40
2023-01-29T11:21:30.534Z,57.11
2023-01-29T11:22:32.353Z,57.80
2023-01-29T11:23:34.296Z,58.22
2023-01-29T11:24:36.014Z,58.83
2023-01-29T11:25:37.806Z,58.54
2023-01-29T11:26:42.786Z,58.26
2023-01-29T11:27:51.107Z,57.26
2023-01-29T11:28:52.902Z,56.88
2023-01-29T11:29:55.611Z,56.67
2023-01-29T11:30:57.809Z,56.33
2023-01-29T11:32:03.256Z,56.86
2023-01-29T11:33:08.451Z,56.57
2023-01-29T11:34:19.618Z,56.58
2023-01-29T11:35:24.712Z,57.26
2023-01-29T11:36:38.248Z,58.09
2023-01-29T11:37:42.140Z,57.48
2023-01-29T11:38:43.882Z,56.88
2023-01-29T11:39:49.021Z,56.20
2023-01-29T11:40:51.686Z,56.64
2023-01-29T11:42:04.588Z,57.14
2023-01-29T11:43:12.574Z,55.98
2023-01-29T11:44:41.592Z,55.53
2023-01-29T11:45:44.176Z,56.32
2023-01-29T11:46:46.693Z,55.77
2023-01-29T11:47:54.887Z,55.96
2023-01-29T11:48:59.194Z,55.62
2023-01-29T11:50:04.995Z,55.23
2023-01-29T11:51:07.864Z,55.35
2023-01-29T11:52:11.612Z,55.41
2023-01-29T11:53:42.423Z,56.61
2023-01-29T11:54:52.053Z,56.77
2023-01-29T11:55:56.000Z,57.51
2023-01-29T11:56:58.745Z,56.75
2023-01-29T11:58:16.259Z,56.59
2023-01-29T11:59:26.550Z,56.25
2023-01-29T12:00:31.874Z,55.92
2023-01-29T12:01:37.815Z,56.71
2023-01-29T12:02:45.924Z,55.96
2023-01-29T12:03:54.006Z,56.38
2023-01-29T12:04:58.739Z,55.67
2023-01-29T12:06:06.016Z,56.03
2023-01-29T12:07:14.884Z,56.53
2023-01-29T12:08:18.706Z,55.03
2023-01-29T12:09:24.503Z,55.42
2023-01-29T12:10:41.110Z,55.63
2023-01-29T12:11:43.039Z,55.06
2023-01-29T12:12:44.850Z,55.40
2023-01-29T12:13:54.955Z,54.99
2023-01-29T12:15:16.364Z,54.66
2023-01-29T12:16:36.196Z,54.78
2023-01-29T12:17:39.837Z,55.97
2023-01-29T12:18:51.215Z,55.83
2023-01-29T12:19:57.312Z,55.11
2023-01-29T12:21:04.961Z,54.98
2023-01-29T12:22:20.686Z,55.69
2023-01-29T12:23:22.409Z,55.65
2023-01-29T12:24:44.251Z,55.11
2023-01-29T12:26:07.499Z,54.69
2023-01-29T12:27:32.022Z,55.52
2023-01-29T12:28:42.480Z,56.05
2023-01-29T12:29:56.724Z,54.52
2023-01-29T12:31:29.647Z,54.45
2023-01-29T12:33:09.887Z,54.68
2023-01-29T12:34:20.625Z,55.34
2023-01-29T12:35:33.878Z,55.89
2023-01-29T12:36:42.002Z,55.86
2023-01-29T12:38:01.942Z,55.25
2023-01-29T12:39:03.710Z,55.23
2023-01-29T12:40:13.080Z,54.58
2023-01-29T12:41:37.946Z,54.48
2023-01-29T12:42:43.595Z,55.40
2023-01-29T12:43:49.597Z,56.04
2023-01-29T12:45:08.816Z,54.96
2023-01-29T12:46:22.863Z,54.36
2023-01-29T12:47:27.781Z,54.22
2023-01-29T12:48:38.644Z,53.69
2023-01-29T12:49:43.025Z,53.56
2023-01-29T12:50:46.388Z,53.40
2023-01-29T12:52:13.799Z,53.28
2023-01-29T12:53:40.350Z,53.01
2023-01-29T12:54:50.145Z,52.91
2023-01-29T12:55:58.190Z,53.25
2023-01-29T12:57:04.006Z,52.79
2023-01-29T12:58:14.308Z,52.77
2023-01-29T12:59:28.923Z,52.98
2023-01-29T13:00:37.760Z,53.28
2023-01-29T13:01:48.142Z,53.28
2023-01-29T13:02:49.903Z,54.45
2023-01-29T13:04:06.555Z,54.38
2023-01-29T13:05:31.497Z,53.67
2023-01-29T13:06:41.736Z,54.05
2023-01-29T13:07:48.096Z,53.26
2023-01-29T13:08:56.945Z,53.58
2023-01-29T13:10:08.263Z,53.67
2023-01-29T13:11:25.355Z,53.54
2023-01-29T13:12:27.495Z,52.78
2023-01-29T13:13:37.497Z,53.54
2023-01-29T13:14:58.701Z,54.25
2023-01-29T13:16:01.681Z,53.94
2023-01-29T13:17:14.389Z,53.06
2023-01-29T13:18:34.414Z,53.36
2023-01-29T13:19:45.500Z,54.14
2023-01-29T13:20:49.637Z,54.15
2023-01-29T13:21:54.600Z,53.43
2023-01-29T13:23:03.615Z,53.62
2023-01-29T13:24:21.346Z,53.47
2023-01-29T13:25:23.122Z,53.58
2023-01-29T13:26:26.713Z,54.52
2023-01-29T13:27:30.659Z,53.97
2023-01-29T13:28:32.946Z,53.89
2023-01-29T13:29:35.102Z,54.16
2023-01-29T13:30:37.579Z,54.18
2023-01-29T13:31:41.414Z,53.80
2023-01-29T13:32:52.884Z,55.21
2023-01-29T13:34:13.650Z,54.67
2023-01-29T13:35:17.407Z,54.43
2023-01-29T13:36:29.232Z,54.95
2023-01-29T13:37:37.540Z,55.34
2023-01-29T13:38:39.298Z,55.02
2023-01-29T13:39:48.909Z,54.24
2023-01-29T13:40:51.315Z,54.11
2023-01-29T13:41:55.168Z,53.63
2023-01-29T13:43:00.328Z,54.24
2023-01-29T13:44:04.927Z,54.44
2023-01-29T13:45:09.162Z,55.74
2023-01-29T13:46:15.028Z,54.55
2023-01-29T13:47:35.452Z,54.17
2023-01-29T13:48:46.980Z,54.93
2023-01-29T13:50:07.419Z,54.29
2023-01-29T13:51:19.609Z,54.49
2023-01-29T13:52:44.722Z,54.51
2023-01-29T13:54:05.282Z,54.58
2023-01-29T13:55:20.104Z,54.87
2023-01-29T13:56:45.358Z,55.41
2023-01-29T13:57:47.009Z,55.08
2023-01-29T13:58:49.051Z,54.82
2023-01-29T13:59:55.487Z,55.22
2023-01-29T14:00:58.634Z,54.80
2023-01-29T14:02:02.847Z,55.04
2023-01-29T14:03:04.813Z,54.69
2023-01-29T14:04:35.865Z,55.13
2023-01-29T14:05:59.968Z,55.50
2023-01-29T14:07:06.704Z,55.35
2023-01-29T14:08:14.315Z,55.87
2023-01-29T14:09:37.731Z,55.56
2023-01-29T14:10:40.909Z,55.73
2023-01-29T14:11:48.524Z,55.40
2023-01-29T14:12:55.710Z,55.18
2023-01-29T14:13:57.417Z,54.84
2023-01-29T14:15:25.029Z,55.24
2023-01-29T14:16:33.676Z,55.61
2023-01-29T14:17:37.385Z,55.86
2023-01-29T14:19:00.470Z,55.53
2023-01-29T14:20:19.638Z,55.96
2023-01-29T14:21:28.505Z,56.32
2023-01-29T14:22:33.787Z,55.68
2023-01-29T14:23:48.624Z,55.76
2023-01-29T14:24:55.606Z,55.84
2023-01-29T14:26:00.875Z,55.81
2023-01-29T14:27:03.538Z,56.24
2023-01-29T14:28:15.147Z,55.54
2023-01-29T14:30:50.655Z,56.01
2023-01-29T14:32:00.688Z,55.98
2023-01-29T14:32:42.579Z,55.79
2023-01-29T14:33:03.272Z,56.95
2023-01-29T14:34:13.977Z,55.84
2023-01-29T14:35:23.099Z,56.13
2023-01-29T14:36:27.177Z,56.15
2023-01-29T14:37:39.576Z,56.35